BAW90V EDDF-EGLL
Flight info
| Callsign | BAW90V |
|---|---|
| Flight time | 1h 14m |
| Altitude | 36000 |
| Route | OBOKA3W/25C OBOKA Z29 TORNU DCT ABNED L980 LOGAN |
| Aircraft | A320/M-SDE3FGHIRWY/LB1 |
Departure
| Time | 2026-05-06 21:54 |
|---|---|
| Airport | Frankfurt Main Airport (EDDF) |
Arrival
| Time | 2026-05-06 23:08 |
|---|---|
| Airport | London Heathrow Airport (EGLL) |
| Time | Latitude | Longitude | Altitude | Speed | Heading |
|---|---|---|---|---|---|
| 2026-05-06 21:32 | 50.04999 | 8.59216 | 362 ft | 0 kts | 160° |
| 2026-05-06 21:43 | 50.05010 | 8.59209 | 364 ft | 4 kts | 160° |
| 2026-05-06 21:43 | 50.05031 | 8.59198 | 361 ft | 4 kts | 152° |
| 2026-05-06 21:43 | 50.05046 | 8.59174 | 360 ft | 4 kts | 88° |
| 2026-05-06 21:43 | 50.05040 | 8.59136 | 363 ft | 4 kts | 70° |
| 2026-05-06 21:44 | 50.05035 | 8.59115 | 360 ft | 1 kts | 70° |
| 2026-05-06 21:47 | 50.05040 | 8.59138 | 362 ft | 5 kts | 70° |
| 2026-05-06 21:47 | 50.05054 | 8.59210 | 360 ft | 10 kts | 83° |
| 2026-05-06 21:48 | 50.05009 | 8.59291 | 363 ft | 11 kts | 159° |
| 2026-05-06 21:48 | 50.04939 | 8.59331 | 367 ft | 11 kts | 160° |
| 2026-05-06 21:48 | 50.04869 | 8.59329 | 368 ft | 10 kts | 213° |
| 2026-05-06 21:48 | 50.04835 | 8.59217 | 372 ft | 13 kts | 249° |
| 2026-05-06 21:49 | 50.04799 | 8.59070 | 373 ft | 16 kts | 250° |
| 2026-05-06 21:49 | 50.04758 | 8.58894 | 372 ft | 18 kts | 250° |
| 2026-05-06 21:49 | 50.04708 | 8.58773 | 369 ft | 10 kts | 209° |
| 2026-05-06 21:49 | 50.04643 | 8.58758 | 370 ft | 8 kts | 185° |
| 2026-05-06 21:50 | 50.04637 | 8.58757 | 370 ft | 0 kts | 185° |
| 2026-05-06 21:52 | 50.04620 | 8.58752 | 370 ft | 5 kts | 195° |
| 2026-05-06 21:52 | 50.04582 | 8.58711 | 371 ft | 8 kts | 219° |
| 2026-05-06 21:52 | 50.04527 | 8.58641 | 371 ft | 13 kts | 220° |
| 2026-05-06 21:53 | 50.04467 | 8.58505 | 370 ft | 19 kts | 251° |
| 2026-05-06 21:53 | 50.04343 | 8.57981 | 365 ft | 87 kts | 250° |
| 2026-05-06 21:53 | 50.04063 | 8.56807 | 360 ft | 141 kts | 250° |
| 2026-05-06 21:53 | 50.03702 | 8.55275 | 787 ft | 150 kts | 251° |
| 2026-05-06 21:54 | 50.03345 | 8.53746 | 1475 ft | 152 kts | 252° |
| 2026-05-06 21:54 | 50.02959 | 8.52130 | 1869 ft | 170 kts | 252° |
| 2026-05-06 21:54 | 50.02460 | 8.50330 | 2195 ft | 193 kts | 239° |
| 2026-05-06 21:54 | 50.01482 | 8.48794 | 2743 ft | 207 kts | 215° |
| 2026-05-06 21:55 | 50.00124 | 8.47991 | 3413 ft | 214 kts | 191° |
| 2026-05-06 21:55 | 49.98649 | 8.47666 | 4165 ft | 214 kts | 191° |
| 2026-05-06 21:55 | 49.97182 | 8.47345 | 5065 ft | 212 kts | 191° |
| 2026-05-06 21:55 | 49.95752 | 8.46941 | 5861 ft | 214 kts | 199° |
| 2026-05-06 21:56 | 49.94245 | 8.46251 | 6323 ft | 236 kts | 199° |
| 2026-05-06 21:56 | 49.92676 | 8.45397 | 7062 ft | 241 kts | 209° |
| 2026-05-06 21:56 | 49.91303 | 8.43929 | 7889 ft | 244 kts | 225° |
| 2026-05-06 21:56 | 49.90240 | 8.41841 | 8763 ft | 247 kts | 240° |
| 2026-05-06 21:57 | 49.89364 | 8.39533 | 9645 ft | 250 kts | 242° |
| 2026-05-06 21:57 | 49.88753 | 8.36995 | 10401 ft | 254 kts | 258° |
| 2026-05-06 21:57 | 49.88632 | 8.34157 | 10793 ft | 276 kts | 274° |
| 2026-05-06 21:57 | 49.88802 | 8.31057 | 11052 ft | 300 kts | 274° |
| 2026-05-06 21:58 | 49.89182 | 8.27765 | 11416 ft | 319 kts | 286° |
| 2026-05-06 21:58 | 49.90080 | 8.24581 | 12053 ft | 327 kts | 300° |
| 2026-05-06 21:58 | 49.91401 | 8.21659 | 12661 ft | 334 kts | 305° |
| 2026-05-06 21:58 | 49.92787 | 8.18750 | 12850 ft | 334 kts | 305° |
| 2026-05-06 21:59 | 49.94235 | 8.15940 | 12882 ft | 334 kts | 312° |
| 2026-05-06 21:59 | 49.95956 | 8.13524 | 12885 ft | 334 kts | 318° |
| 2026-05-06 21:59 | 49.97723 | 8.11181 | 12884 ft | 334 kts | 317° |
| 2026-05-06 21:59 | 49.99487 | 8.08831 | 12884 ft | 334 kts | 317° |
| 2026-05-06 22:00 | 50.01249 | 8.06474 | 12882 ft | 334 kts | 317° |
| 2026-05-06 22:00 | 50.03008 | 8.04118 | 12885 ft | 334 kts | 317° |
| 2026-05-06 22:00 | 50.04769 | 8.01758 | 12885 ft | 334 kts | 317° |
| 2026-05-06 22:00 | 50.06527 | 7.99398 | 12884 ft | 334 kts | 317° |
| 2026-05-06 22:01 | 50.08263 | 7.97066 | 12884 ft | 334 kts | 317° |
| 2026-05-06 22:01 | 50.10020 | 7.94700 | 12880 ft | 334 kts | 317° |
| 2026-05-06 22:01 | 50.11781 | 7.92331 | 12880 ft | 334 kts | 317° |
| 2026-05-06 22:01 | 50.13539 | 7.89969 | 12880 ft | 334 kts | 317° |
| 2026-05-06 22:02 | 50.15299 | 7.87598 | 12881 ft | 334 kts | 317° |
| 2026-05-06 22:02 | 50.17056 | 7.85228 | 12884 ft | 334 kts | 317° |
| 2026-05-06 22:02 | 50.18818 | 7.82844 | 12882 ft | 334 kts | 317° |
| 2026-05-06 22:02 | 50.20572 | 7.80470 | 12884 ft | 332 kts | 318° |
| 2026-05-06 22:03 | 50.22312 | 7.78112 | 12883 ft | 330 kts | 318° |
| 2026-05-06 22:03 | 50.24051 | 7.75768 | 12881 ft | 330 kts | 320° |
| 2026-05-06 22:03 | 50.25928 | 7.73699 | 12894 ft | 331 kts | 328° |
| 2026-05-06 22:03 | 50.27983 | 7.72078 | 12897 ft | 331 kts | 335° |
| 2026-05-06 22:04 | 50.30102 | 7.70643 | 12896 ft | 331 kts | 335° |
| 2026-05-06 22:04 | 50.32215 | 7.69206 | 12899 ft | 331 kts | 335° |
| 2026-05-06 22:04 | 50.34330 | 7.67761 | 12894 ft | 331 kts | 335° |
| 2026-05-06 22:04 | 50.36444 | 7.66313 | 12896 ft | 331 kts | 335° |
| 2026-05-06 22:05 | 50.38525 | 7.64882 | 12898 ft | 331 kts | 335° |
| 2026-05-06 22:05 | 50.40637 | 7.63426 | 12901 ft | 331 kts | 335° |
| 2026-05-06 22:05 | 50.42760 | 7.61962 | 13473 ft | 334 kts | 335° |
| 2026-05-06 22:05 | 50.44899 | 7.60489 | 14212 ft | 337 kts | 335° |
| 2026-05-06 22:06 | 50.47059 | 7.59000 | 14870 ft | 341 kts | 335° |
| 2026-05-06 22:06 | 50.49248 | 7.57489 | 15492 ft | 346 kts | 334° |
| 2026-05-06 22:06 | 50.51468 | 7.55956 | 16115 ft | 350 kts | 334° |
| 2026-05-06 22:06 | 50.53714 | 7.54405 | 16747 ft | 355 kts | 334° |
| 2026-05-06 22:07 | 50.55960 | 7.52750 | 17370 ft | 358 kts | 329° |
| 2026-05-06 22:07 | 50.58080 | 7.50650 | 17997 ft | 362 kts | 325° |
| 2026-05-06 22:07 | 50.60201 | 7.48475 | 18574 ft | 366 kts | 325° |
| 2026-05-06 22:07 | 50.62347 | 7.46276 | 19171 ft | 370 kts | 325° |
| 2026-05-06 22:08 | 50.64510 | 7.44064 | 19816 ft | 372 kts | 326° |
| 2026-05-06 22:08 | 50.66696 | 7.41826 | 20372 ft | 377 kts | 325° |
| 2026-05-06 22:08 | 50.68903 | 7.39555 | 20946 ft | 381 kts | 325° |
| 2026-05-06 22:08 | 50.71129 | 7.37259 | 21492 ft | 384 kts | 326° |
| 2026-05-06 22:09 | 50.73246 | 7.34664 | 22032 ft | 386 kts | 315° |
| 2026-05-06 22:09 | 50.75013 | 7.31532 | 22569 ft | 388 kts | 304° |
| 2026-05-06 22:09 | 50.76421 | 7.27891 | 23130 ft | 390 kts | 295° |
| 2026-05-06 22:09 | 50.77669 | 7.24052 | 23646 ft | 394 kts | 295° |
| 2026-05-06 22:10 | 50.78928 | 7.20181 | 24107 ft | 398 kts | 296° |
| 2026-05-06 22:10 | 50.80197 | 7.16280 | 24578 ft | 401 kts | 296° |
| 2026-05-06 22:10 | 50.81476 | 7.12349 | 25031 ft | 403 kts | 295° |
| 2026-05-06 22:10 | 50.82763 | 7.08389 | 25483 ft | 406 kts | 296° |
| 2026-05-06 22:11 | 50.84056 | 7.04402 | 25936 ft | 409 kts | 295° |
| 2026-05-06 22:11 | 50.85355 | 7.00386 | 26356 ft | 412 kts | 295° |
| 2026-05-06 22:11 | 50.86667 | 6.96320 | 26790 ft | 415 kts | 295° |
| 2026-05-06 22:11 | 50.87978 | 6.92247 | 27209 ft | 417 kts | 295° |
| 2026-05-06 22:12 | 50.89299 | 6.88139 | 27635 ft | 419 kts | 295° |
| 2026-05-06 22:12 | 50.90625 | 6.84011 | 28050 ft | 422 kts | 295° |
| 2026-05-06 22:12 | 50.91960 | 6.79849 | 28462 ft | 424 kts | 295° |
| 2026-05-06 22:12 | 50.93299 | 6.75666 | 28868 ft | 427 kts | 295° |
| 2026-05-06 22:13 | 50.94624 | 6.71522 | 29263 ft | 429 kts | 295° |
| 2026-05-06 22:13 | 50.95976 | 6.67284 | 29667 ft | 431 kts | 295° |
| 2026-05-06 22:13 | 50.97351 | 6.62969 | 30059 ft | 434 kts | 295° |
| 2026-05-06 22:13 | 50.98694 | 6.58745 | 30422 ft | 435 kts | 296° |
| 2026-05-06 22:14 | 51.00063 | 6.54437 | 30818 ft | 437 kts | 295° |
| 2026-05-06 22:14 | 51.01433 | 6.50118 | 31153 ft | 439 kts | 295° |
| 2026-05-06 22:14 | 51.02803 | 6.45783 | 31520 ft | 440 kts | 295° |
| 2026-05-06 22:14 | 51.04174 | 6.41434 | 31979 ft | 439 kts | 295° |
| 2026-05-06 22:15 | 51.05542 | 6.37094 | 32432 ft | 439 kts | 295° |
| 2026-05-06 22:15 | 51.06906 | 6.32758 | 32867 ft | 438 kts | 295° |
| 2026-05-06 22:15 | 51.08270 | 6.28412 | 33317 ft | 438 kts | 295° |
| 2026-05-06 22:15 | 51.09626 | 6.24078 | 33775 ft | 438 kts | 295° |
| 2026-05-06 22:16 | 51.10979 | 6.19741 | 34172 ft | 438 kts | 295° |
| 2026-05-06 22:16 | 51.12334 | 6.15405 | 34547 ft | 437 kts | 295° |
| 2026-05-06 22:16 | 51.13644 | 6.11051 | 34954 ft | 435 kts | 291° |
| 2026-05-06 22:16 | 51.14589 | 6.06552 | 35311 ft | 433 kts | 283° |
| 2026-05-06 22:17 | 51.15339 | 6.01907 | 35638 ft | 433 kts | 283° |
| 2026-05-06 22:17 | 51.16090 | 5.97254 | 35890 ft | 434 kts | 283° |
| 2026-05-06 22:17 | 51.17580 | 5.87985 | 35950 ft | 430 kts | 283° |
| 2026-05-06 22:18 | 51.19485 | 5.78966 | 35959 ft | 430 kts | 292° |
| 2026-05-06 22:18 | 51.21817 | 5.70193 | 35962 ft | 429 kts | 292° |
| 2026-05-06 22:19 | 51.24125 | 5.61433 | 35961 ft | 428 kts | 291° |
| 2026-05-06 22:19 | 51.26424 | 5.52650 | 35967 ft | 428 kts | 291° |
| 2026-05-06 22:20 | 51.28723 | 5.43853 | 35971 ft | 428 kts | 291° |
| 2026-05-06 22:20 | 51.30997 | 5.35111 | 35974 ft | 428 kts | 291° |
| 2026-05-06 22:21 | 51.33280 | 5.26305 | 35982 ft | 429 kts | 291° |
| 2026-05-06 22:21 | 51.35560 | 5.17471 | 35990 ft | 429 kts | 291° |
| 2026-05-06 22:22 | 51.37832 | 5.08639 | 35990 ft | 428 kts | 291° |
| 2026-05-06 22:22 | 51.40078 | 4.99875 | 35990 ft | 428 kts | 291° |
| 2026-05-06 22:23 | 51.42334 | 4.91052 | 35989 ft | 428 kts | 291° |
| 2026-05-06 22:23 | 51.44582 | 4.82216 | 35989 ft | 428 kts | 291° |
| 2026-05-06 22:24 | 51.46823 | 4.73367 | 35994 ft | 428 kts | 291° |
| 2026-05-06 22:24 | 51.49048 | 4.64517 | 36003 ft | 427 kts | 291° |
| 2026-05-06 22:25 | 51.51268 | 4.55666 | 35998 ft | 427 kts | 291° |
| 2026-05-06 22:25 | 51.53479 | 4.46868 | 35997 ft | 427 kts | 291° |
| 2026-05-06 22:26 | 51.55687 | 4.38011 | 35994 ft | 427 kts | 291° |
| 2026-05-06 22:26 | 51.57883 | 4.29144 | 35993 ft | 427 kts | 290° |
| 2026-05-06 22:27 | 51.60073 | 4.20256 | 35995 ft | 427 kts | 291° |
| 2026-05-06 22:27 | 51.62261 | 4.11374 | 35996 ft | 427 kts | 290° |
| 2026-05-06 22:28 | 51.64449 | 4.02488 | 36000 ft | 427 kts | 291° |
| 2026-05-06 22:28 | 51.66630 | 3.93587 | 36003 ft | 427 kts | 290° |
| 2026-05-06 22:29 | 51.68776 | 3.84731 | 36013 ft | 427 kts | 290° |
| 2026-05-06 22:29 | 51.70936 | 3.75803 | 36012 ft | 426 kts | 290° |
| 2026-05-06 22:30 | 51.73088 | 3.66888 | 36012 ft | 426 kts | 290° |
| 2026-05-06 22:30 | 51.75232 | 3.57970 | 36011 ft | 426 kts | 290° |
| 2026-05-06 22:31 | 51.77360 | 3.49062 | 36024 ft | 424 kts | 290° |
| 2026-05-06 22:31 | 51.79458 | 3.40234 | 36024 ft | 423 kts | 290° |
| 2026-05-06 22:32 | 51.81516 | 3.31545 | 36027 ft | 421 kts | 290° |
| 2026-05-06 22:32 | 51.83604 | 3.22704 | 36022 ft | 421 kts | 288° |
| 2026-05-06 22:33 | 51.84592 | 3.13463 | 36021 ft | 417 kts | 269° |
| 2026-05-06 22:33 | 51.84088 | 3.04147 | 36026 ft | 416 kts | 264° |
| 2026-05-06 22:34 | 51.83478 | 2.94834 | 36018 ft | 416 kts | 264° |
| 2026-05-06 22:34 | 51.82853 | 2.85533 | 35839 ft | 416 kts | 264° |
| 2026-05-06 22:35 | 51.82540 | 2.80904 | 35589 ft | 414 kts | 264° |
| 2026-05-06 22:35 | 51.82229 | 2.76294 | 35342 ft | 411 kts | 264° |
| 2026-05-06 22:35 | 51.81919 | 2.71715 | 35097 ft | 408 kts | 264° |
| 2026-05-06 22:35 | 51.81609 | 2.67177 | 34855 ft | 405 kts | 264° |
| 2026-05-06 22:36 | 51.81301 | 2.62661 | 34614 ft | 403 kts | 264° |
| 2026-05-06 22:36 | 51.80993 | 2.58161 | 34379 ft | 402 kts | 264° |
| 2026-05-06 22:36 | 51.80684 | 2.53687 | 34141 ft | 398 kts | 264° |
| 2026-05-06 22:36 | 51.80376 | 2.49265 | 33714 ft | 394 kts | 263° |
| 2026-05-06 22:37 | 51.80171 | 2.46361 | 33405 ft | 392 kts | 263° |
| 2026-05-06 22:37 | 51.79862 | 2.41998 | 32955 ft | 389 kts | 263° |
| 2026-05-06 22:37 | 51.79557 | 2.37680 | 32512 ft | 385 kts | 263° |
| 2026-05-06 22:37 | 51.79152 | 2.32000 | 31935 ft | 382 kts | 263° |
| 2026-05-06 22:38 | 51.78946 | 2.29121 | 31645 ft | 380 kts | 263° |
| 2026-05-06 22:38 | 51.78645 | 2.24951 | 31215 ft | 377 kts | 263° |
| 2026-05-06 22:38 | 51.78346 | 2.20753 | 30803 ft | 375 kts | 264° |
| 2026-05-06 22:38 | 51.78080 | 2.16569 | 30398 ft | 374 kts | 264° |
| 2026-05-06 22:39 | 51.77839 | 2.12405 | 29979 ft | 372 kts | 265° |
| 2026-05-06 22:39 | 51.77606 | 2.08244 | 29561 ft | 369 kts | 265° |
| 2026-05-06 22:39 | 51.77374 | 2.04132 | 29176 ft | 366 kts | 265° |
| 2026-05-06 22:39 | 51.77139 | 2.00049 | 28787 ft | 364 kts | 265° |
| 2026-05-06 22:40 | 51.76903 | 1.95990 | 28428 ft | 361 kts | 264° |
| 2026-05-06 22:40 | 51.76664 | 1.91972 | 28062 ft | 359 kts | 264° |
| 2026-05-06 22:40 | 51.76422 | 1.87980 | 27682 ft | 356 kts | 264° |
| 2026-05-06 22:40 | 51.76181 | 1.84015 | 27305 ft | 354 kts | 264° |
| 2026-05-06 22:41 | 51.75697 | 1.76171 | 26540 ft | 349 kts | 264° |
| 2026-05-06 22:41 | 51.75453 | 1.72292 | 26161 ft | 346 kts | 264° |
| 2026-05-06 22:41 | 51.75210 | 1.68436 | 25777 ft | 344 kts | 264° |
| 2026-05-06 22:42 | 51.74972 | 1.64647 | 25379 ft | 342 kts | 264° |
| 2026-05-06 22:42 | 51.74736 | 1.60839 | 24987 ft | 340 kts | 264° |
| 2026-05-06 22:42 | 51.74497 | 1.57019 | 24465 ft | 343 kts | 264° |
| 2026-05-06 22:42 | 51.74255 | 1.53177 | 23939 ft | 345 kts | 264° |
| 2026-05-06 22:43 | 51.74008 | 1.49312 | 23400 ft | 347 kts | 264° |
| 2026-05-06 22:43 | 51.73757 | 1.45442 | 22831 ft | 347 kts | 264° |
| 2026-05-06 22:43 | 51.73505 | 1.41571 | 22326 ft | 346 kts | 264° |
| 2026-05-06 22:43 | 51.73255 | 1.37714 | 21808 ft | 345 kts | 264° |
| 2026-05-06 22:44 | 51.73003 | 1.33865 | 21290 ft | 345 kts | 264° |
| 2026-05-06 22:44 | 51.72749 | 1.30016 | 20772 ft | 345 kts | 264° |
| 2026-05-06 22:44 | 51.72493 | 1.26174 | 20248 ft | 344 kts | 264° |
| 2026-05-06 22:44 | 51.72236 | 1.22339 | 19742 ft | 344 kts | 264° |
| 2026-05-06 22:45 | 51.71983 | 1.18556 | 19233 ft | 344 kts | 264° |
| 2026-05-06 22:45 | 51.71728 | 1.14742 | 18781 ft | 341 kts | 264° |
| 2026-05-06 22:45 | 51.71474 | 1.10942 | 18378 ft | 338 kts | 264° |
| 2026-05-06 22:45 | 51.71221 | 1.07190 | 17901 ft | 336 kts | 264° |
| 2026-05-06 22:46 | 51.70963 | 1.03464 | 17406 ft | 334 kts | 264° |
| 2026-05-06 22:46 | 51.70705 | 0.99751 | 16919 ft | 332 kts | 264° |
| 2026-05-06 22:46 | 51.70450 | 0.96065 | 16449 ft | 330 kts | 264° |
| 2026-05-06 22:46 | 51.70198 | 0.92394 | 15957 ft | 329 kts | 264° |
| 2026-05-06 22:47 | 51.69945 | 0.88741 | 15505 ft | 327 kts | 264° |
| 2026-05-06 22:47 | 51.69692 | 0.85107 | 15051 ft | 326 kts | 264° |
| 2026-05-06 22:47 | 51.69438 | 0.81488 | 14605 ft | 324 kts | 264° |
| 2026-05-06 22:47 | 51.69183 | 0.77884 | 14168 ft | 323 kts | 264° |
| 2026-05-06 22:48 | 51.68928 | 0.74297 | 13726 ft | 321 kts | 264° |
| 2026-05-06 22:48 | 51.68676 | 0.70727 | 13254 ft | 320 kts | 264° |
| 2026-05-06 22:48 | 51.68425 | 0.67177 | 12801 ft | 318 kts | 264° |
| 2026-05-06 22:48 | 51.68174 | 0.63650 | 12360 ft | 316 kts | 264° |
| 2026-05-06 22:49 | 51.67925 | 0.60142 | 11934 ft | 314 kts | 264° |
| 2026-05-06 22:49 | 51.67677 | 0.56710 | 11785 ft | 303 kts | 264° |
| 2026-05-06 22:49 | 51.67437 | 0.53420 | 11548 ft | 297 kts | 264° |
| 2026-05-06 22:49 | 51.67199 | 0.50140 | 11207 ft | 294 kts | 264° |
| 2026-05-06 22:50 | 51.66963 | 0.46874 | 10850 ft | 292 kts | 265° |
| 2026-05-06 22:50 | 51.66727 | 0.43636 | 10501 ft | 291 kts | 264° |
| 2026-05-06 22:50 | 51.66491 | 0.40411 | 10167 ft | 289 kts | 264° |
| 2026-05-06 22:50 | 51.66256 | 0.37233 | 10022 ft | 283 kts | 264° |
| 2026-05-06 22:51 | 51.66021 | 0.34080 | 10048 ft | 284 kts | 264° |
| 2026-05-06 22:51 | 51.65833 | 0.30913 | 10048 ft | 284 kts | 269° |
| 2026-05-06 22:51 | 51.65813 | 0.27738 | 10049 ft | 283 kts | 271° |
| 2026-05-06 22:51 | 51.65820 | 0.24562 | 10052 ft | 283 kts | 271° |
| 2026-05-06 22:52 | 51.65826 | 0.21390 | 10048 ft | 283 kts | 271° |
| 2026-05-06 22:52 | 51.65833 | 0.18218 | 10052 ft | 283 kts | 271° |
| 2026-05-06 22:52 | 51.65838 | 0.15046 | 10053 ft | 283 kts | 271° |
| 2026-05-06 22:52 | 51.65840 | 0.11875 | 10053 ft | 283 kts | 271° |
| 2026-05-06 22:53 | 51.65845 | 0.08735 | 10054 ft | 284 kts | 271° |
| 2026-05-06 22:53 | 51.65849 | 0.05561 | 10054 ft | 283 kts | 271° |
| 2026-05-06 22:53 | 51.65857 | 0.02379 | 10054 ft | 284 kts | 271° |
| 2026-05-06 22:53 | 51.65866 | -0.00805 | 10064 ft | 284 kts | 271° |
| 2026-05-06 22:54 | 51.65872 | -0.03992 | 9976 ft | 285 kts | 271° |
| 2026-05-06 22:54 | 51.65878 | -0.07167 | 9769 ft | 283 kts | 271° |
| 2026-05-06 22:54 | 51.65886 | -0.10084 | 9571 ft | 282 kts | 271° |
| 2026-05-06 22:54 | 51.65896 | -0.13243 | 9357 ft | 281 kts | 271° |
| 2026-05-06 22:55 | 51.65907 | -0.16388 | 9147 ft | 280 kts | 271° |
| 2026-05-06 22:55 | 51.65921 | -0.19520 | 8935 ft | 279 kts | 271° |
| 2026-05-06 22:55 | 51.65935 | -0.22641 | 8723 ft | 278 kts | 271° |
| 2026-05-06 22:55 | 51.65953 | -0.25749 | 8500 ft | 277 kts | 271° |
| 2026-05-06 22:56 | 51.65975 | -0.28846 | 8300 ft | 277 kts | 271° |
| 2026-05-06 22:56 | 51.65994 | -0.31902 | 8095 ft | 275 kts | 271° |
| 2026-05-06 22:56 | 51.66017 | -0.34985 | 7890 ft | 275 kts | 271° |
| 2026-05-06 22:56 | 51.66044 | -0.38064 | 7686 ft | 274 kts | 271° |
| 2026-05-06 22:57 | 51.66073 | -0.41136 | 7482 ft | 274 kts | 271° |
| 2026-05-06 22:57 | 51.66107 | -0.44198 | 7254 ft | 273 kts | 271° |
| 2026-05-06 22:57 | 51.66147 | -0.47261 | 7054 ft | 273 kts | 271° |
| 2026-05-06 22:57 | 51.66191 | -0.50315 | 6855 ft | 273 kts | 271° |
| 2026-05-06 22:58 | 51.66238 | -0.53366 | 6658 ft | 272 kts | 271° |
| 2026-05-06 22:58 | 51.66290 | -0.56411 | 6460 ft | 272 kts | 271° |
| 2026-05-06 22:58 | 51.66343 | -0.59452 | 6249 ft | 271 kts | 271° |
| 2026-05-06 22:58 | 51.66398 | -0.62482 | 6038 ft | 270 kts | 271° |
| 2026-05-06 22:59 | 51.66449 | -0.65502 | 5827 ft | 269 kts | 271° |
| 2026-05-06 22:59 | 51.66497 | -0.68479 | 5624 ft | 267 kts | 271° |
| 2026-05-06 22:59 | 51.66545 | -0.71461 | 5416 ft | 265 kts | 271° |
| 2026-05-06 22:59 | 51.66588 | -0.74429 | 5210 ft | 264 kts | 271° |
| 2026-05-06 23:00 | 51.66370 | -0.77316 | 5055 ft | 256 kts | 251° |
| 2026-05-06 23:00 | 51.65510 | -0.79729 | 5002 ft | 243 kts | 227° |
| 2026-05-06 23:00 | 51.64214 | -0.81316 | 5010 ft | 228 kts | 205° |
| 2026-05-06 23:00 | 51.62741 | -0.81981 | 5011 ft | 214 kts | 184° |
| 2026-05-06 23:01 | 51.61316 | -0.81792 | 5008 ft | 201 kts | 165° |
| 2026-05-06 23:01 | 51.59992 | -0.81142 | 5005 ft | 198 kts | 163° |
| 2026-05-06 23:01 | 51.58676 | -0.80500 | 5006 ft | 197 kts | 163° |
| 2026-05-06 23:01 | 51.57362 | -0.79862 | 5010 ft | 197 kts | 163° |
| 2026-05-06 23:02 | 51.56045 | -0.79224 | 5007 ft | 198 kts | 164° |
| 2026-05-06 23:02 | 51.54748 | -0.78599 | 5038 ft | 189 kts | 164° |
| 2026-05-06 23:02 | 51.53537 | -0.78010 | 5006 ft | 175 kts | 163° |
| 2026-05-06 23:02 | 51.52381 | -0.77447 | 5009 ft | 173 kts | 164° |
| 2026-05-06 23:03 | 51.51231 | -0.76891 | 5014 ft | 173 kts | 164° |
| 2026-05-06 23:03 | 51.50036 | -0.76314 | 5019 ft | 188 kts | 164° |
| 2026-05-06 23:03 | 51.48889 | -0.75472 | 5003 ft | 175 kts | 144° |
| 2026-05-06 23:03 | 51.48076 | -0.74093 | 4838 ft | 167 kts | 123° |
| 2026-05-06 23:04 | 51.47612 | -0.72458 | 4596 ft | 156 kts | 106° |
| 2026-05-06 23:04 | 51.47479 | -0.70867 | 4445 ft | 136 kts | 86° |
| 2026-05-06 23:04 | 51.47581 | -0.69397 | 4125 ft | 131 kts | 80° |
| 2026-05-06 23:04 | 51.47725 | -0.67978 | 3794 ft | 130 kts | 78° |
| 2026-05-06 23:05 | 51.47807 | -0.66541 | 3465 ft | 128 kts | 87° |
| 2026-05-06 23:05 | 51.47770 | -0.65114 | 3128 ft | 127 kts | 91° |
| 2026-05-06 23:05 | 51.47718 | -0.63711 | 2800 ft | 125 kts | 91° |
| 2026-05-06 23:05 | 51.47688 | -0.62325 | 2473 ft | 123 kts | 88° |
| 2026-05-06 23:06 | 51.47684 | -0.60960 | 2155 ft | 121 kts | 87° |
| 2026-05-06 23:06 | 51.47704 | -0.59597 | 1796 ft | 131 kts | 85° |
| 2026-05-06 23:06 | 51.47748 | -0.58063 | 1522 ft | 140 kts | 86° |
| 2026-05-06 23:06 | 51.47736 | -0.56524 | 1243 ft | 135 kts | 90° |
| 2026-05-06 23:07 | 51.47721 | -0.55006 | 986 ft | 139 kts | 88° |
| 2026-05-06 23:07 | 51.47736 | -0.53466 | 775 ft | 137 kts | 88° |
| 2026-05-06 23:07 | 51.47741 | -0.51924 | 576 ft | 140 kts | 88° |
| 2026-05-06 23:07 | 51.47741 | -0.50356 | 377 ft | 141 kts | 88° |
| 2026-05-06 23:08 | 51.47749 | -0.48791 | 173 ft | 141 kts | 88° |
| 2026-05-06 23:08 | 51.47754 | -0.47337 | 86 ft | 113 kts | 90° |
| 2026-05-06 23:08 | 51.47758 | -0.46405 | 90 ft | 50 kts | 90° |
| 2026-05-06 23:08 | 51.47760 | -0.46020 | 86 ft | 32 kts | 89° |
| 2026-05-06 23:09 | 51.47762 | -0.45659 | 85 ft | 24 kts | 90° |
| 2026-05-06 23:09 | 51.47713 | -0.45476 | 86 ft | 19 kts | 161° |
| 2026-05-06 23:09 | 51.47606 | -0.45497 | 86 ft | 15 kts | 229° |
| 2026-05-06 23:09 | 51.47597 | -0.45683 | 86 ft | 19 kts | 271° |
| 2026-05-06 23:10 | 51.47594 | -0.45912 | 89 ft | 22 kts | 268° |
| 2026-05-06 23:10 | 51.47594 | -0.46181 | 88 ft | 26 kts | 270° |
| 2026-05-06 23:10 | 51.47593 | -0.46484 | 86 ft | 29 kts | 270° |
| 2026-05-06 23:10 | 51.47590 | -0.46822 | 86 ft | 32 kts | 264° |
| 2026-05-06 23:11 | 51.47582 | -0.47183 | 89 ft | 31 kts | 270° |
| 2026-05-06 23:11 | 51.47581 | -0.47516 | 88 ft | 31 kts | 269° |
| 2026-05-06 23:11 | 51.47580 | -0.47869 | 90 ft | 33 kts | 270° |
| 2026-05-06 23:11 | 51.47580 | -0.48186 | 90 ft | 23 kts | 269° |
| 2026-05-06 23:12 | 51.47578 | -0.48407 | 90 ft | 14 kts | 266° |
| 2026-05-06 23:12 | 51.47527 | -0.48477 | 88 ft | 11 kts | 180° |
| 2026-05-06 23:12 | 51.47440 | -0.48475 | 86 ft | 13 kts | 179° |
| 2026-05-06 23:12 | 51.47377 | -0.48476 | 86 ft | 4 kts | 195° |
| 2026-05-06 23:13 | 51.47362 | -0.48509 | 87 ft | 5 kts | 255° |
| 2026-05-06 23:13 | 51.47361 | -0.48573 | 86 ft | 2 kts | 270° |
| 2026-05-06 23:13 | 51.47361 | -0.48587 | 86 ft | 0 kts | 269° |